METAR OBSERVATIONS
Looking Back 6 hours

  • KPBF 240453Z AUTO 07004KT 10SM OVC006 13/13 A3009 RMK AO2 SLP188 T01280128 =
  • KPBF 240353Z AUTO 08005KT 10SM OVC006 13/12 A3012 RMK AO2 SLP197 T01330122 =
  • KPBF 240253Z AUTO 07003KT 9SM OVC006 13/13 A3013 RMK AO2 SLP203 60000 T01280128 58011 =
  • KPBF 240153Z AUTO 06009KT 10SM BKN007 OVC014 13/12 A3015 RMK AO2 SLP208 T01330122 =
  • KPBF 240053Z AUTO 02010KT 10SM OVC005 14/13 A3016 RMK AO2 RAB32E42 SLP211 P0000 T01390133 =
  • KPBF 232353Z AUTO 01009KT 10SM OVC006 14/13 A3017 RMK AO2 SLP214 T01440133 10156 20128 58007 =
    ________________________________________